Terminal Aerodrome Forecast
Issued by NWS

Home | Current Version | Previous Version | Text Only | Print | Product List | Glossary On
Versions: 1 2 3 4 5 6 7 8 9 10 11 12 13 14 15
000
FTAK31 PAFA 180540
TAFAOT
TAF
PAOT 180540Z 1806/1906 28007KT P6SM -SHRA SCT015 BKN035 OVC050
     FM181500 28009KT P6SM -SHRA BKN010 OVC030
     FM182000 26015KT P6SM VCSH OVC025
     FM190200 26012KT 6SM -RA BR OVC015=

USA.gov is the U.S. government's official web portal to all federal, state and local government web resources and services.